createdAt,value
2023-03-24T00:00:28.285Z,12.37
2023-03-24T00:03:01.743Z,12.34
2023-03-24T00:05:31.260Z,12.33
2023-03-24T00:08:03.232Z,12.34
2023-03-24T00:10:35.059Z,12.39
2023-03-24T00:13:04.365Z,12.41
2023-03-24T00:15:36.570Z,12.43
2023-03-24T00:18:10.924Z,12.41
2023-03-24T00:20:42.438Z,12.36
2023-03-24T00:23:12.573Z,12.27
2023-03-24T00:25:41.184Z,12.16
2023-03-24T00:28:11.477Z,12.12
2023-03-24T00:30:41.685Z,12.03
2023-03-24T00:33:11.711Z,11.99
2023-03-24T00:35:45.070Z,11.97
2023-03-24T00:38:14.825Z,11.98
2023-03-24T00:40:49.131Z,11.99
2023-03-24T00:43:18.690Z,12.00
2023-03-24T00:45:47.955Z,12.05
2023-03-24T00:48:24.584Z,12.05
2023-03-24T00:50:53.183Z,12.06
2023-03-24T00:53:23.414Z,12.03
2023-03-24T00:55:54.089Z,11.96
2023-03-24T00:58:23.661Z,11.89
2023-03-24T01:00:56.689Z,11.83
2023-03-24T01:03:29.526Z,11.83
2023-03-24T01:06:04.370Z,11.80
2023-03-24T01:08:33.614Z,11.76
2023-03-24T01:11:02.275Z,11.76
2023-03-24T01:13:34.508Z,11.79
2023-03-24T01:16:03.458Z,11.80
2023-03-24T01:18:32.145Z,11.76
2023-03-24T01:21:01.523Z,11.70
2023-03-24T01:23:31.290Z,11.58
2023-03-24T01:26:00.471Z,11.50
2023-03-24T01:28:29.758Z,11.45
2023-03-24T01:30:58.490Z,11.43
2023-03-24T01:33:27.292Z,11.45
2023-03-24T01:35:56.250Z,11.45
2023-03-24T01:38:25.223Z,11.43
2023-03-24T01:40:55.628Z,11.39
2023-03-24T01:43:31.397Z,11.30
2023-03-24T01:46:17.514Z,11.26
2023-03-24T01:49:00.025Z,11.23
2023-03-24T01:51:43.355Z,11.24
2023-03-24T01:54:23.949Z,11.25
2023-03-24T01:57:07.089Z,11.22
2023-03-24T01:59:39.932Z,11.23
2023-03-24T02:02:14.778Z,11.22
2023-03-24T02:04:59.541Z,11.16
2023-03-24T02:07:47.022Z,11.04
2023-03-24T02:10:17.156Z,11.02
2023-03-24T02:12:46.690Z,11.01
2023-03-24T02:15:17.752Z,10.99
2023-03-24T02:18:02.294Z,10.99
2023-03-24T02:20:47.272Z,11.02
2023-03-24T02:23:47.467Z,11.04
2023-03-24T02:26:22.414Z,11.06
2023-03-24T02:29:05.280Z,11.04
2023-03-24T02:31:39.585Z,11.02
2023-03-24T02:34:26.646Z,10.98
2023-03-24T02:37:17.354Z,10.99
2023-03-24T02:39:49.745Z,11.01
2023-03-24T02:42:23.733Z,10.97
2023-03-24T02:45:11.863Z,10.93
2023-03-24T02:47:56.696Z,10.91
2023-03-24T02:50:31.648Z,10.81
2023-03-24T02:53:12.489Z,10.75
2023-03-24T02:55:45.065Z,10.71
2023-03-24T02:58:40.771Z,10.71
2023-03-24T03:01:14.171Z,10.69
2023-03-24T03:04:18.590Z,10.67
2023-03-24T03:06:52.728Z,10.64
2023-03-24T03:09:22.084Z,10.67
2023-03-24T03:11:52.948Z,10.73
2023-03-24T03:14:32.534Z,10.78
2023-03-24T03:17:14.777Z,10.74
2023-03-24T03:20:11.439Z,10.65
2023-03-24T03:22:44.121Z,10.60
2023-03-24T03:25:13.217Z,10.58
2023-03-24T03:27:43.563Z,10.59
2023-03-24T03:30:18.778Z,10.58
2023-03-24T03:32:54.688Z,10.54
2023-03-24T03:35:29.159Z,10.52
2023-03-24T03:37:57.799Z,10.52
2023-03-24T03:40:37.569Z,10.52
2023-03-24T03:43:13.612Z,10.62
2023-03-24T03:45:48.964Z,10.59
2023-03-24T03:48:18.388Z,10.58
2023-03-24T03:50:47.321Z,10.48
2023-03-24T03:53:17.814Z,10.36
2023-03-24T03:55:47.533Z,10.36
2023-03-24T03:58:17.319Z,10.43
2023-03-24T04:00:56.059Z,10.54
2023-03-24T04:03:51.233Z,10.67
2023-03-24T04:06:50.668Z,10.80
2023-03-24T04:09:58.757Z,11.00
2023-03-24T04:12:53.084Z,11.20
2023-03-24T04:15:51.987Z,11.39
2023-03-24T04:19:08.636Z,11.57
2023-03-24T04:21:56.831Z,11.69
2023-03-24T04:24:37.582Z,11.81
2023-03-24T04:27:38.862Z,11.98
2023-03-24T04:30:09.696Z,12.15
2023-03-24T04:32:49.139Z,12.22
2023-03-24T04:35:34.090Z,12.42
2023-03-24T04:38:18.810Z,12.62
2023-03-24T04:40:50.795Z,12.80
2023-03-24T04:43:20.432Z,12.99
2023-03-24T04:45:50.391Z,13.18
2023-03-24T04:48:40.912Z,13.37
2023-03-24T04:51:13.126Z,13.44
2023-03-24T04:54:04.633Z,13.51
2023-03-24T04:56:41.394Z,13.53
2023-03-24T04:59:24.737Z,13.48
2023-03-24T05:01:53.728Z,13.29
2023-03-24T05:04:42.580Z,13.30
2023-03-24T05:07:21.548Z,13.39
2023-03-24T05:09:52.508Z,13.47
2023-03-24T05:12:28.243Z,13.56
2023-03-24T05:15:16.216Z,13.69
2023-03-24T05:17:45.642Z,13.74
2023-03-24T05:20:15.911Z,13.79
2023-03-24T05:22:47.291Z,13.85
2023-03-24T05:25:16.463Z,13.92
2023-03-24T05:27:45.385Z,13.97
2023-03-24T05:30:20.781Z,14.05
2023-03-24T05:32:51.005Z,14.13
2023-03-24T05:35:20.932Z,14.26
2023-03-24T05:37:53.771Z,14.36
2023-03-24T05:40:22.348Z,14.38
2023-03-24T05:43:12.537Z,14.19
2023-03-24T05:45:46.075Z,13.95
2023-03-24T05:48:24.403Z,14.01
2023-03-24T05:51:16.990Z,14.21
2023-03-24T05:53:46.468Z,14.38
2023-03-24T05:56:17.642Z,14.88
2023-03-24T05:58:58.964Z,15.38
2023-03-24T06:01:48.411Z,16.11
2023-03-24T06:04:30.744Z,16.69
2023-03-24T06:07:09.134Z,17.02
2023-03-24T06:09:42.645Z,17.31
2023-03-24T06:12:13.741Z,17.45
2023-03-24T06:14:49.531Z,17.10
2023-03-24T06:17:21.608Z,16.81
2023-03-24T06:19:53.387Z,17.29
2023-03-24T06:22:50.621Z,17.90
2023-03-24T06:25:26.464Z,18.69
2023-03-24T06:28:12.511Z,19.33
2023-03-24T06:30:47.050Z,20.27
2023-03-24T06:33:22.390Z,20.85
2023-03-24T06:35:53.267Z,21.49
2023-03-24T06:38:23.266Z,21.86
2023-03-24T06:40:52.194Z,21.67
2023-03-24T06:43:20.700Z,21.23
2023-03-24T06:45:53.191Z,21.62
2023-03-24T06:48:25.670Z,22.26
2023-03-24T06:51:05.104Z,22.67
2023-03-24T06:53:35.921Z,22.55
2023-03-24T06:56:06.973Z,22.41
2023-03-24T06:58:43.710Z,21.88
2023-03-24T07:01:17.651Z,22.16
2023-03-24T07:03:57.991Z,22.89
2023-03-24T07:07:06.485Z,23.80
2023-03-24T07:09:41.357Z,24.46
2023-03-24T07:12:26.922Z,24.80
2023-03-24T07:14:58.891Z,24.94
2023-03-24T07:17:29.998Z,24.98
2023-03-24T07:20:16.582Z,24.92
2023-03-24T07:23:06.091Z,24.83
2023-03-24T07:26:01.166Z,24.70
2023-03-24T07:28:48.689Z,24.67
2023-03-24T07:31:41.200Z,24.57
2023-03-24T07:34:12.444Z,24.63
2023-03-24T07:36:43.145Z,24.71
2023-03-24T07:39:19.511Z,24.69
2023-03-24T07:41:48.482Z,24.63
2023-03-24T07:44:26.055Z,24.56
2023-03-24T07:46:57.731Z,24.56
2023-03-24T07:49:27.513Z,24.66
2023-03-24T07:52:08.294Z,24.96
2023-03-24T07:54:42.415Z,25.34
2023-03-24T07:57:14.541Z,25.67
2023-03-24T07:59:46.957Z,26.04
2023-03-24T08:02:21.641Z,26.44
2023-03-24T08:04:57.940Z,26.93
2023-03-24T08:07:55.983Z,27.41
2023-03-24T08:10:27.314Z,27.79
2023-03-24T08:13:02.955Z,27.98
2023-03-24T08:15:31.972Z,27.59
2023-03-24T08:18:02.884Z,27.18
2023-03-24T08:23:06.784Z,25.91
2023-03-24T08:25:36.758Z,25.77
2023-03-24T08:28:06.249Z,25.18
2023-03-24T08:30:35.206Z,25.13
2023-03-24T08:33:04.199Z,25.37
2023-03-24T08:35:35.012Z,25.83
2023-03-24T08:38:06.919Z,26.31
2023-03-24T08:40:38.878Z,26.65
2023-03-24T08:43:10.110Z,27.02
2023-03-24T08:45:38.993Z,27.50
2023-03-24T08:48:08.456Z,27.95
2023-03-24T08:50:39.755Z,28.41
2023-03-24T08:53:12.588Z,28.84
2023-03-24T08:55:43.401Z,29.31
2023-03-24T08:58:22.189Z,29.80
2023-03-24T09:00:52.413Z,29.97
2023-03-24T09:03:22.907Z,29.79
2023-03-24T09:05:57.339Z,29.66
2023-03-24T09:08:26.645Z,29.47
2023-03-24T09:11:00.315Z,28.78
2023-03-24T09:13:29.276Z,28.29
2023-03-24T09:16:00.155Z,28.20
2023-03-24T09:18:29.645Z,28.37
2023-03-24T09:20:58.609Z,28.46
2023-03-24T09:23:29.463Z,28.54
2023-03-24T09:25:58.906Z,28.65
2023-03-24T09:28:30.535Z,28.87
2023-03-24T09:31:00.850Z,29.01
2023-03-24T09:33:30.571Z,29.10
2023-03-24T09:36:01.178Z,28.91
2023-03-24T09:38:35.259Z,28.42
2023-03-24T09:41:04.888Z,28.45
2023-03-24T09:43:41.223Z,28.56
2023-03-24T09:46:21.776Z,28.89
2023-03-24T09:48:57.509Z,29.42
2023-03-24T09:51:37.908Z,29.66
2023-03-24T09:54:22.676Z,29.44
2023-03-24T09:56:52.137Z,29.30
2023-03-24T09:59:29.390Z,29.27
2023-03-24T10:01:58.152Z,29.05
2023-03-24T10:04:27.871Z,28.61
2023-03-24T10:07:01.335Z,28.44
2023-03-24T10:09:35.225Z,28.31
2023-03-24T10:12:36.998Z,27.86
2023-03-24T10:18:17.014Z,28.06
2023-03-24T10:21:22.828Z,28.28
2023-03-24T10:24:03.975Z,28.55
2023-03-24T10:26:39.454Z,28.60
2023-03-24T10:29:27.155Z,28.77
2023-03-24T10:32:21.129Z,28.62
2023-03-24T10:35:01.688Z,28.82
2023-03-24T10:37:30.367Z,28.68
2023-03-24T10:39:59.323Z,28.41
2023-03-24T10:42:31.535Z,28.10
2023-03-24T10:45:01.812Z,27.81
2023-03-24T10:47:32.923Z,27.65
2023-03-24T10:50:12.363Z,27.65
2023-03-24T10:52:50.735Z,27.52
2023-03-24T10:55:20.552Z,27.17
2023-03-24T10:57:53.995Z,26.93
2023-03-24T11:00:32.807Z,26.99
2023-03-24T11:03:02.136Z,26.57
2023-03-24T11:05:33.550Z,26.48
2023-03-24T11:08:17.779Z,26.51
2023-03-24T11:10:46.745Z,26.19
2023-03-24T11:13:20.606Z,25.99
2023-03-24T11:16:14.316Z,25.95
2023-03-24T11:18:59.257Z,25.95
2023-03-24T11:21:29.204Z,25.82
2023-03-24T11:24:00.039Z,25.74
2023-03-24T11:26:38.659Z,25.52
2023-03-24T11:29:15.179Z,25.39
2023-03-24T11:31:54.797Z,25.19
2023-03-24T11:34:34.339Z,25.23
2023-03-24T11:37:04.262Z,25.15
2023-03-24T11:39:34.442Z,25.04
2023-03-24T11:42:16.446Z,24.82
2023-03-24T11:44:46.452Z,25.06
2023-03-24T11:47:25.023Z,25.07
2023-03-24T11:50:30.131Z,24.58
2023-03-24T11:53:17.043Z,24.67
2023-03-24T11:56:12.288Z,24.67
2023-03-24T11:58:46.749Z,24.59
2023-03-24T12:01:24.381Z,24.68
2023-03-24T12:04:26.492Z,24.65
2023-03-24T12:07:20.454Z,24.66
2023-03-24T12:10:16.766Z,24.65
2023-03-24T12:12:55.302Z,24.58
2023-03-24T12:15:34.205Z,24.53
2023-03-24T12:18:38.038Z,24.52
2023-03-24T12:21:39.842Z,24.15
2023-03-24T12:24:53.092Z,24.22
2023-03-24T12:27:50.729Z,24.38
2023-03-24T12:30:52.737Z,24.38
2023-03-24T12:33:21.904Z,24.21
2023-03-24T12:35:56.728Z,24.16
2023-03-24T12:38:37.153Z,24.14
2023-03-24T12:41:25.090Z,23.96
2023-03-24T12:44:25.190Z,24.01
2023-03-24T12:47:03.427Z,23.96
2023-03-24T12:49:36.896Z,23.96
2023-03-24T12:52:43.895Z,23.88
2023-03-24T12:55:15.929Z,24.04
2023-03-24T12:57:48.611Z,24.01
2023-03-24T13:00:23.531Z,23.76
2023-03-24T13:02:53.860Z,23.71
2023-03-24T13:05:25.179Z,23.60
2023-03-24T13:07:57.696Z,23.66
2023-03-24T13:10:31.086Z,23.71
2023-03-24T13:13:20.116Z,23.68
2023-03-24T13:15:51.659Z,23.57
2023-03-24T13:18:48.553Z,23.53
2023-03-24T13:21:18.496Z,23.42
2023-03-24T13:23:55.286Z,23.35
2023-03-24T13:26:51.447Z,23.28
2023-03-24T13:29:48.972Z,23.43
2023-03-24T13:32:25.666Z,23.41
2023-03-24T13:35:07.128Z,23.39
2023-03-24T13:37:45.336Z,23.25
2023-03-24T13:40:27.618Z,23.20
2023-03-24T13:43:01.078Z,23.09
2023-03-24T13:45:39.826Z,23.02
2023-03-24T13:48:17.028Z,23.03
2023-03-24T13:51:09.113Z,22.81
2023-03-24T13:53:44.666Z,22.74
2023-03-24T13:56:15.098Z,22.63
2023-03-24T13:59:09.031Z,22.56
2023-03-24T14:01:44.217Z,22.73
2023-03-24T14:04:19.672Z,22.82
2023-03-24T14:06:51.874Z,22.89
2023-03-24T14:09:27.532Z,22.84
2023-03-24T14:12:06.340Z,22.72
2023-03-24T14:15:13.107Z,22.62
2023-03-24T14:17:47.409Z,22.58
2023-03-24T14:20:33.457Z,22.60
2023-03-24T14:23:03.815Z,22.69
2023-03-24T14:25:33.128Z,22.67
2023-03-24T14:28:09.765Z,22.68
2023-03-24T14:30:41.025Z,22.65
2023-03-24T14:33:22.637Z,22.56
2023-03-24T14:35:52.672Z,22.48
2023-03-24T14:38:23.725Z,22.37
2023-03-24T14:40:56.044Z,22.32
2023-03-24T14:43:25.714Z,22.19
2023-03-24T14:46:16.846Z,22.01
2023-03-24T14:49:14.748Z,21.95
2023-03-24T14:52:04.064Z,21.90
2023-03-24T14:54:46.193Z,21.87
2023-03-24T14:57:22.040Z,21.87
2023-03-24T15:00:01.341Z,21.84
2023-03-24T15:02:41.541Z,21.76
2023-03-24T15:05:13.174Z,21.74
2023-03-24T15:07:42.762Z,21.71
2023-03-24T15:10:18.150Z,21.68
2023-03-24T15:12:47.662Z,21.64
2023-03-24T15:15:21.888Z,21.62
2023-03-24T15:17:51.041Z,21.61
2023-03-24T15:20:24.748Z,21.59
2023-03-24T15:22:55.457Z,21.62
2023-03-24T15:25:28.385Z,21.58
2023-03-24T15:27:58.561Z,21.54
2023-03-24T15:30:28.002Z,21.37
2023-03-24T15:32:56.804Z,21.32
2023-03-24T15:35:25.671Z,21.31
2023-03-24T15:37:56.665Z,21.29
2023-03-24T15:40:30.564Z,21.26
2023-03-24T15:43:00.864Z,21.20
2023-03-24T15:45:36.555Z,21.16
2023-03-24T15:48:12.538Z,21.09
2023-03-24T15:50:42.292Z,21.02
2023-03-24T15:53:14.411Z,20.96
2023-03-24T15:55:46.269Z,20.94
2023-03-24T15:58:28.052Z,20.93
2023-03-24T16:01:02.587Z,20.85
2023-03-24T16:03:34.546Z,20.79
2023-03-24T16:06:04.299Z,20.72
2023-03-24T16:08:41.315Z,20.65
2023-03-24T16:11:12.291Z,20.56
2023-03-24T16:13:47.784Z,20.48
2023-03-24T16:16:25.315Z,20.40
2023-03-24T16:18:54.311Z,20.32
2023-03-24T16:21:24.995Z,20.21
2023-03-24T16:23:58.861Z,20.16
2023-03-24T16:26:29.550Z,20.09
2023-03-24T16:29:03.790Z,20.01
2023-03-24T16:31:35.415Z,19.91
2023-03-24T16:34:04.063Z,19.78
2023-03-24T16:36:33.238Z,19.70
2023-03-24T16:39:01.992Z,19.61
2023-03-24T16:41:33.521Z,19.56
2023-03-24T16:44:02.249Z,19.48
2023-03-24T16:46:32.049Z,19.36
2023-03-24T16:49:06.162Z,19.29
2023-03-24T16:51:35.428Z,19.25
2023-03-24T16:54:07.757Z,19.21
2023-03-24T16:56:37.860Z,19.13
2023-03-24T16:59:06.810Z,19.03
2023-03-24T17:01:42.144Z,18.92
2023-03-24T17:04:19.522Z,18.92
2023-03-24T17:06:53.696Z,18.90
2023-03-24T17:09:23.271Z,18.85
2023-03-24T17:11:56.909Z,18.81
2023-03-24T17:14:33.141Z,18.80
2023-03-24T17:17:04.899Z,18.76
2023-03-24T17:19:34.424Z,18.70
2023-03-24T17:22:07.109Z,18.66
2023-03-24T17:24:38.326Z,18.61
2023-03-24T17:27:18.923Z,18.61
2023-03-24T17:29:47.685Z,18.59
2023-03-24T17:32:16.422Z,18.56
2023-03-24T17:34:45.831Z,18.54
2023-03-24T17:37:15.203Z,18.54
2023-03-24T17:39:44.320Z,18.50
2023-03-24T17:42:15.005Z,18.50
2023-03-24T17:44:44.915Z,18.47
2023-03-24T17:47:13.517Z,18.46
2023-03-24T17:50:02.147Z,18.47
2023-03-24T17:52:46.871Z,18.46
2023-03-24T17:55:16.389Z,18.41
2023-03-24T17:57:45.237Z,18.42
2023-03-24T18:00:14.937Z,18.40
2023-03-24T18:02:44.349Z,18.39
2023-03-24T18:05:16.107Z,18.39
2023-03-24T18:07:47.439Z,18.41
2023-03-24T18:10:16.900Z,18.36
2023-03-24T18:12:47.472Z,18.32
2023-03-24T18:15:17.227Z,18.30
2023-03-24T18:17:48.916Z,18.26
2023-03-24T18:20:21.282Z,18.21
2023-03-24T18:22:51.226Z,18.22
2023-03-24T18:25:20.439Z,18.21
2023-03-24T18:27:51.721Z,18.20
2023-03-24T18:30:22.533Z,18.18
2023-03-24T18:32:51.478Z,18.12
2023-03-24T18:35:24.632Z,18.06
2023-03-24T18:37:53.480Z,18.01
2023-03-24T18:40:24.498Z,17.94
2023-03-24T18:42:53.668Z,17.92
2023-03-24T18:45:22.537Z,17.90
2023-03-24T18:47:54.095Z,17.85
2023-03-24T18:50:23.280Z,17.86
2023-03-24T18:52:57.864Z,17.81
2023-03-24T18:55:30.400Z,17.77
2023-03-24T18:57:59.576Z,17.79
2023-03-24T19:00:29.999Z,17.74
2023-03-24T19:03:01.022Z,17.71
2023-03-24T19:05:32.928Z,17.65
2023-03-24T19:08:06.489Z,17.69
2023-03-24T19:10:35.876Z,17.56
2023-03-24T19:13:05.852Z,17.59
2023-03-24T19:15:35.774Z,17.59
2023-03-24T19:18:05.788Z,17.54
2023-03-24T19:20:38.022Z,17.50
2023-03-24T19:23:08.071Z,17.49
2023-03-24T19:25:37.065Z,17.53
2023-03-24T19:28:06.368Z,17.47
2023-03-24T19:30:34.896Z,17.47
2023-03-24T19:33:03.602Z,17.48
2023-03-24T19:35:33.751Z,17.43
2023-03-24T19:38:03.073Z,17.47
2023-03-24T19:40:36.790Z,17.52
2023-03-24T19:43:05.708Z,17.51
2023-03-24T19:45:34.578Z,17.48
2023-03-24T19:48:03.580Z,17.47
2023-03-24T19:50:33.464Z,17.54
2023-03-24T19:53:04.568Z,17.56
2023-03-24T19:55:56.353Z,17.52
2023-03-24T19:58:32.358Z,17.44
2023-03-24T20:01:02.193Z,17.36
2023-03-24T20:03:32.249Z,17.30
2023-03-24T20:06:05.237Z,17.21
2023-03-24T20:08:34.297Z,17.16
2023-03-24T20:11:12.150Z,17.05
2023-03-24T20:13:48.446Z,16.95
2023-03-24T20:16:17.951Z,16.84
2023-03-24T20:18:46.559Z,16.91
2023-03-24T20:21:20.765Z,16.81
2023-03-24T20:23:50.050Z,16.65
2023-03-24T20:26:19.788Z,16.61
2023-03-24T20:28:48.794Z,16.70
2023-03-24T20:31:18.122Z,16.69
2023-03-24T20:33:47.511Z,16.70
2023-03-24T20:36:16.109Z,16.65
2023-03-24T20:38:44.852Z,16.64
2023-03-24T20:41:13.618Z,16.65
2023-03-24T20:43:45.739Z,16.62
2023-03-24T20:46:17.041Z,16.51
2023-03-24T20:48:46.042Z,16.46
2023-03-24T20:51:14.798Z,16.50
2023-03-24T20:53:44.921Z,16.40
2023-03-24T20:56:15.246Z,16.44
2023-03-24T20:58:48.294Z,16.43
2023-03-24T21:01:22.336Z,16.45
2023-03-24T21:03:51.505Z,16.45
2023-03-24T21:06:21.069Z,16.47
2023-03-24T21:08:49.723Z,16.43
2023-03-24T21:11:21.405Z,16.40
2023-03-24T21:13:50.691Z,16.37
2023-03-24T21:16:20.012Z,16.29
2023-03-24T21:18:51.599Z,16.24
2023-03-24T21:21:20.670Z,16.14
2023-03-24T21:23:49.331Z,16.05
2023-03-24T21:26:18.265Z,15.93
2023-03-24T21:28:47.072Z,15.82
2023-03-24T21:31:24.625Z,15.75
2023-03-24T21:33:54.230Z,15.76
2023-03-24T21:36:24.537Z,15.68
2023-03-24T21:38:54.277Z,15.61
2023-03-24T21:41:23.361Z,15.56
2023-03-24T21:43:54.628Z,15.50
2023-03-24T21:46:26.552Z,15.52
2023-03-24T21:48:59.426Z,15.59
2023-03-24T21:51:30.856Z,15.60
2023-03-24T21:54:06.807Z,15.37
2023-03-24T21:56:38.229Z,15.39
2023-03-24T21:59:06.757Z,15.34
2023-03-24T22:01:36.533Z,15.36
2023-03-24T22:04:06.223Z,15.36
2023-03-24T22:06:39.615Z,15.28
2023-03-24T22:09:15.472Z,15.29
2023-03-24T22:11:44.370Z,15.26
2023-03-24T22:14:16.090Z,15.17
2023-03-24T22:16:45.416Z,15.09
2023-03-24T22:19:14.289Z,15.03
2023-03-24T22:22:00.678Z,14.86
2023-03-24T22:24:30.068Z,14.70
2023-03-24T22:26:58.937Z,14.48
2023-03-24T22:29:29.239Z,14.41
2023-03-24T22:31:57.864Z,14.25
2023-03-24T22:34:28.841Z,14.21
2023-03-24T22:36:57.378Z,14.11
2023-03-24T22:39:26.257Z,14.16
2023-03-24T22:41:57.256Z,14.07
2023-03-24T22:44:26.433Z,14.09
2023-03-24T22:46:59.323Z,13.88
2023-03-24T22:49:29.705Z,13.81
2023-03-24T22:51:58.106Z,13.76
2023-03-24T22:54:26.937Z,13.67
2023-03-24T22:56:56.080Z,13.64
2023-03-24T22:59:32.565Z,13.71
2023-03-24T23:02:09.280Z,13.51
2023-03-24T23:04:42.095Z,13.44
2023-03-24T23:07:10.768Z,13.55
2023-03-24T23:09:43.233Z,13.50
2023-03-24T23:12:13.798Z,13.42
2023-03-24T23:14:42.433Z,13.44
2023-03-24T23:17:11.076Z,13.38
2023-03-24T23:19:39.730Z,13.36
2023-03-24T23:22:08.610Z,13.27
2023-03-24T23:24:39.673Z,13.12
2023-03-24T23:27:08.903Z,13.15
2023-03-24T23:29:41.045Z,13.15
2023-03-24T23:32:09.801Z,13.04
2023-03-24T23:34:38.758Z,12.84
2023-03-24T23:37:07.427Z,12.88
2023-03-24T23:39:39.491Z,12.86
2023-03-24T23:42:07.875Z,12.84
2023-03-24T23:44:38.962Z,12.82
2023-03-24T23:47:08.118Z,12.76
2023-03-24T23:49:36.637Z,12.68
2023-03-24T23:52:05.262Z,12.64
2023-03-24T23:54:33.667Z,12.63
2023-03-24T23:57:03.554Z,12.56
2023-03-24T23:59:32.770Z,12.56
